sensor_id;sensor_type;location;lat;lon;timestamp;pressure;altitude;pressure_sealevel;temperature;humidity
75536;BME280;64119;52.070;20.804;2023-06-05T00:01:24;101072.36;;;7.79;72.25
75536;BME280;64119;52.070;20.804;2023-06-05T00:03:51;101070.78;;;7.76;72.50
75536;BME280;64119;52.070;20.804;2023-06-05T00:06:21;101073.11;;;7.72;72.59
75536;BME280;64119;52.070;20.804;2023-06-05T00:08:49;101072.64;;;7.68;72.84
75536;BME280;64119;52.070;20.804;2023-06-05T00:11:17;101074.67;;;7.64;73.03
75536;BME280;64119;52.070;20.804;2023-06-05T00:13:45;101071.23;;;7.59;73.00
75536;BME280;64119;52.070;20.804;2023-06-05T00:16:13;101074.18;;;7.56;72.88
75536;BME280;64119;52.070;20.804;2023-06-05T00:18:42;101069.16;;;7.52;73.25
75536;BME280;64119;52.070;20.804;2023-06-05T00:21:13;101069.88;;;7.48;73.21
75536;BME280;64119;52.070;20.804;2023-06-05T00:23:41;101076.33;;;7.46;72.78
75536;BME280;64119;52.070;20.804;2023-06-05T00:26:09;101075.01;;;7.41;73.31
75536;BME280;64119;52.070;20.804;2023-06-05T00:28:37;101073.08;;;7.37;73.30
75536;BME280;64119;52.070;20.804;2023-06-05T00:31:06;101067.96;;;7.34;73.96
75536;BME280;64119;52.070;20.804;2023-06-05T00:33:34;101070.47;;;7.30;73.85
75536;BME280;64119;52.070;20.804;2023-06-05T00:36:03;101068.70;;;7.26;73.50
75536;BME280;64119;52.070;20.804;2023-06-05T00:38:31;101069.84;;;7.24;73.62
75536;BME280;64119;52.070;20.804;2023-06-05T00:40:59;101072.58;;;7.21;73.89
75536;BME280;64119;52.070;20.804;2023-06-05T00:43:27;101074.77;;;7.18;73.76
75536;BME280;64119;52.070;20.804;2023-06-05T00:46:00;101070.38;;;7.15;74.32
75536;BME280;64119;52.070;20.804;2023-06-05T00:48:31;101072.25;;;7.12;74.46
75536;BME280;64119;52.070;20.804;2023-06-05T00:51:00;101071.66;;;7.09;74.02
75536;BME280;64119;52.070;20.804;2023-06-05T00:53:30;101072.13;;;7.06;74.09
75536;BME280;64119;52.070;20.804;2023-06-05T00:56:00;101073.86;;;7.03;74.34
75536;BME280;64119;52.070;20.804;2023-06-05T00:58:30;101071.36;;;7.00;74.31
75536;BME280;64119;52.070;20.804;2023-06-05T01:01:01;101071.04;;;6.98;74.70
75536;BME280;64119;52.070;20.804;2023-06-05T01:03:31;101068.40;;;6.94;74.69
75536;BME280;64119;52.070;20.804;2023-06-05T01:06:01;101069.13;;;6.92;74.79
75536;BME280;64119;52.070;20.804;2023-06-05T01:08:32;101067.59;;;6.88;75.24
75536;BME280;64119;52.070;20.804;2023-06-05T01:11:22;101064.54;;;6.83;75.94
75536;BME280;64119;52.070;20.804;2023-06-05T01:16:30;101065.71;;;6.80;75.58
75536;BME280;64119;52.070;20.804;2023-06-05T01:19:00;101064.41;;;6.77;75.27
75536;BME280;64119;52.070;20.804;2023-06-05T01:21:31;101061.62;;;6.73;75.23
75536;BME280;64119;52.070;20.804;2023-06-05T01:24:00;101064.10;;;6.71;75.07
75536;BME280;64119;52.070;20.804;2023-06-05T01:26:36;101060.80;;;6.68;74.83
75536;BME280;64119;52.070;20.804;2023-06-05T01:29:10;101059.34;;;6.67;75.49
75536;BME280;64119;52.070;20.804;2023-06-05T01:31:42;101064.15;;;6.65;75.37
75536;BME280;64119;52.070;20.804;2023-06-05T01:34:13;101064.23;;;6.62;75.58
75536;BME280;64119;52.070;20.804;2023-06-05T01:36:48;101065.90;;;6.59;75.78
75536;BME280;64119;52.070;20.804;2023-06-05T01:39:16;101067.27;;;6.58;75.55
75536;BME280;64119;52.070;20.804;2023-06-05T01:41:46;101070.09;;;6.56;75.83
75536;BME280;64119;52.070;20.804;2023-06-05T01:44:16;101071.15;;;6.52;75.80
75536;BME280;64119;52.070;20.804;2023-06-05T01:46:46;101068.72;;;6.50;75.41
75536;BME280;64119;52.070;20.804;2023-06-05T01:49:14;101066.08;;;6.48;75.94
75536;BME280;64119;52.070;20.804;2023-06-05T01:51:42;101066.91;;;6.45;76.02
75536;BME280;64119;52.070;20.804;2023-06-05T01:54:10;101064.92;;;6.42;75.79
75536;BME280;64119;52.070;20.804;2023-06-05T01:56:38;101068.81;;;6.40;75.54
75536;BME280;64119;52.070;20.804;2023-06-05T01:59:07;101065.19;;;6.38;75.76
75536;BME280;64119;52.070;20.804;2023-06-05T02:01:35;101064.95;;;6.35;76.10
75536;BME280;64119;52.070;20.804;2023-06-05T02:04:03;101060.67;;;6.31;76.12
75536;BME280;64119;52.070;20.804;2023-06-05T02:06:35;101063.09;;;6.28;76.21
75536;BME280;64119;52.070;20.804;2023-06-05T02:09:12;101061.56;;;6.26;76.78
75536;BME280;64119;52.070;20.804;2023-06-05T02:11:41;101062.34;;;6.25;76.86
75536;BME280;64119;52.070;20.804;2023-06-05T02:14:13;101065.54;;;6.23;77.13
75536;BME280;64119;52.070;20.804;2023-06-05T02:16:41;101065.42;;;6.20;77.09
75536;BME280;64119;52.070;20.804;2023-06-05T02:19:11;101065.20;;;6.19;76.81
75536;BME280;64119;52.070;20.804;2023-06-05T02:21:39;101068.27;;;6.18;76.51
75536;BME280;64119;52.070;20.804;2023-06-05T02:24:07;101068.39;;;6.17;76.97
75536;BME280;64119;52.070;20.804;2023-06-05T02:26:35;101070.59;;;6.16;76.97
75536;BME280;64119;52.070;20.804;2023-06-05T02:29:03;101067.20;;;6.15;77.06
75536;BME280;64119;52.070;20.804;2023-06-05T02:31:31;101065.39;;;6.13;77.08
75536;BME280;64119;52.070;20.804;2023-06-05T02:33:59;101063.77;;;6.12;77.48
75536;BME280;64119;52.070;20.804;2023-06-05T02:36:27;101064.08;;;6.11;77.56
75536;BME280;64119;52.070;20.804;2023-06-05T02:38:54;101064.30;;;6.08;77.22
75536;BME280;64119;52.070;20.804;2023-06-05T02:41:22;101063.60;;;6.08;77.12
75536;BME280;64119;52.070;20.804;2023-06-05T02:43:50;101060.77;;;6.08;77.06
75536;BME280;64119;52.070;20.804;2023-06-05T02:46:18;101061.79;;;6.09;77.03
75536;BME280;64119;52.070;20.804;2023-06-05T02:48:46;101063.88;;;6.09;77.13
75536;BME280;64119;52.070;20.804;2023-06-05T02:51:14;101061.33;;;6.10;77.34
75536;BME280;64119;52.070;20.804;2023-06-05T02:53:43;101064.92;;;6.11;77.71
75536;BME280;64119;52.070;20.804;2023-06-05T02:56:12;101063.12;;;6.12;77.53
75536;BME280;64119;52.070;20.804;2023-06-05T02:58:41;101063.98;;;6.13;77.64
75536;BME280;64119;52.070;20.804;2023-06-05T03:01:11;101066.75;;;6.16;77.59
75536;BME280;64119;52.070;20.804;2023-06-05T03:03:44;101068.16;;;6.18;77.64
75536;BME280;64119;52.070;20.804;2023-06-05T03:06:12;101063.48;;;6.21;77.70
75536;BME280;64119;52.070;20.804;2023-06-05T03:08:47;101066.17;;;6.24;78.08
75536;BME280;64119;52.070;20.804;2023-06-05T03:11:18;101067.02;;;6.26;78.65
75536;BME280;64119;52.070;20.804;2023-06-05T03:13:46;101067.16;;;6.28;77.90
75536;BME280;64119;52.070;20.804;2023-06-05T03:16:14;101069.73;;;6.32;77.67
75536;BME280;64119;52.070;20.804;2023-06-05T03:18:46;101071.38;;;6.37;77.80
75536;BME280;64119;52.070;20.804;2023-06-05T03:21:14;101071.10;;;6.42;77.51
75536;BME280;64119;52.070;20.804;2023-06-05T03:23:42;101072.49;;;6.48;77.89
75536;BME280;64119;52.070;20.804;2023-06-05T03:26:10;101072.31;;;6.53;78.14
75536;BME280;64119;52.070;20.804;2023-06-05T03:28:38;101071.17;;;6.59;78.39
75536;BME280;64119;52.070;20.804;2023-06-05T03:31:08;101071.29;;;6.66;78.03
75536;BME280;64119;52.070;20.804;2023-06-05T03:33:40;101069.95;;;6.73;78.02
75536;BME280;64119;52.070;20.804;2023-06-05T03:36:08;101069.99;;;6.79;77.85
75536;BME280;64119;52.070;20.804;2023-06-05T03:38:36;101069.63;;;6.87;77.49
75536;BME280;64119;52.070;20.804;2023-06-05T03:41:04;101073.77;;;6.95;77.69
75536;BME280;64119;52.070;20.804;2023-06-05T03:43:32;101075.27;;;7.03;77.68
75536;BME280;64119;52.070;20.804;2023-06-05T03:46:00;101076.96;;;7.10;77.66
75536;BME280;64119;52.070;20.804;2023-06-05T03:48:29;101070.38;;;7.18;77.39
75536;BME280;64119;52.070;20.804;2023-06-05T03:50:57;101076.80;;;7.28;77.52
75536;BME280;64119;52.070;20.804;2023-06-05T03:53:25;101076.58;;;7.38;77.69
75536;BME280;64119;52.070;20.804;2023-06-05T03:55:57;101080.42;;;7.49;76.98
75536;BME280;64119;52.070;20.804;2023-06-05T03:58:32;101078.35;;;7.59;77.04
75536;BME280;64119;52.070;20.804;2023-06-05T04:01:01;101079.35;;;7.70;76.80
75536;BME280;64119;52.070;20.804;2023-06-05T04:03:29;101079.58;;;7.81;76.83
75536;BME280;64119;52.070;20.804;2023-06-05T04:05:57;101074.90;;;7.92;76.55
75536;BME280;64119;52.070;20.804;2023-06-05T04:08:25;101076.73;;;8.06;76.63
75536;BME280;64119;52.070;20.804;2023-06-05T04:10:53;101072.81;;;8.18;76.55
75536;BME280;64119;52.070;20.804;2023-06-05T04:13:21;101068.52;;;8.31;76.50
75536;BME280;64119;52.070;20.804;2023-06-05T04:15:49;101070.64;;;8.45;76.88
75536;BME280;64119;52.070;20.804;2023-06-05T04:18:18;101069.30;;;8.59;76.92
75536;BME280;64119;52.070;20.804;2023-06-05T04:20:46;101073.10;;;8.75;76.65
75536;BME280;64119;52.070;20.804;2023-06-05T04:23:14;101075.77;;;8.90;76.53
75536;BME280;64119;52.070;20.804;2023-06-05T04:25:43;101074.08;;;9.06;76.34
75536;BME280;64119;52.070;20.804;2023-06-05T04:28:13;101080.52;;;9.23;75.81
75536;BME280;64119;52.070;20.804;2023-06-05T04:30:43;101080.61;;;9.42;74.89
75536;BME280;64119;52.070;20.804;2023-06-05T04:33:14;101082.77;;;9.70;74.32
75536;BME280;64119;52.070;20.804;2023-06-05T04:35:42;101089.41;;;9.99;73.63
75536;BME280;64119;52.070;20.804;2023-06-05T04:38:10;101084.30;;;10.30;74.15
75536;BME280;64119;52.070;20.804;2023-06-05T04:40:37;101084.63;;;10.58;73.11
75536;BME280;64119;52.070;20.804;2023-06-05T04:43:05;101082.69;;;10.83;72.53
75536;BME280;64119;52.070;20.804;2023-06-05T04:45:33;101084.63;;;11.08;72.13
75536;BME280;64119;52.070;20.804;2023-06-05T04:48:01;101084.34;;;11.29;71.47
75536;BME280;64119;52.070;20.804;2023-06-05T04:50:29;101085.23;;;11.54;70.75
75536;BME280;64119;52.070;20.804;2023-06-05T04:53:06;101087.13;;;11.81;69.75
75536;BME280;64119;52.070;20.804;2023-06-05T04:55:35;101087.34;;;12.06;69.06
75536;BME280;64119;52.070;20.804;2023-06-05T04:58:03;101089.74;;;12.33;67.25
75536;BME280;64119;52.070;20.804;2023-06-05T05:00:32;101083.84;;;12.56;65.93
75536;BME280;64119;52.070;20.804;2023-06-05T05:03:00;101082.29;;;12.77;65.26
75536;BME280;64119;52.070;20.804;2023-06-05T05:05:31;101088.35;;;12.99;64.97
75536;BME280;64119;52.070;20.804;2023-06-05T05:07:59;101086.55;;;13.18;65.32
75536;BME280;64119;52.070;20.804;2023-06-05T05:10:29;101085.94;;;13.36;65.11
75536;BME280;64119;52.070;20.804;2023-06-05T05:13:00;101086.02;;;13.55;64.84
75536;BME280;64119;52.070;20.804;2023-06-05T05:15:31;101084.34;;;13.75;65.03
75536;BME280;64119;52.070;20.804;2023-06-05T05:17:59;101085.77;;;13.95;64.70
75536;BME280;64119;52.070;20.804;2023-06-05T05:20:31;101087.85;;;14.12;64.02
75536;BME280;64119;52.070;20.804;2023-06-05T05:23:01;101086.73;;;14.28;63.03
75536;BME280;64119;52.070;20.804;2023-06-05T05:25:29;101086.83;;;14.43;62.89
75536;BME280;64119;52.070;20.804;2023-06-05T05:27:57;101085.33;;;14.59;62.44
75536;BME280;64119;52.070;20.804;2023-06-05T05:30:25;101083.34;;;14.73;61.34
75536;BME280;64119;52.070;20.804;2023-06-05T05:32:53;101085.76;;;14.86;61.40
75536;BME280;64119;52.070;20.804;2023-06-05T05:35:21;101083.04;;;15.01;60.99
75536;BME280;64119;52.070;20.804;2023-06-05T05:37:49;101082.84;;;15.20;60.82
75536;BME280;64119;52.070;20.804;2023-06-05T05:40:17;101082.93;;;15.37;60.65
75536;BME280;64119;52.070;20.804;2023-06-05T05:42:45;101084.24;;;15.54;58.77
75536;BME280;64119;52.070;20.804;2023-06-05T05:45:14;101082.00;;;15.69;59.52
75536;BME280;64119;52.070;20.804;2023-06-05T05:47:42;101084.86;;;15.85;59.81
75536;BME280;64119;52.070;20.804;2023-06-05T05:50:10;101084.42;;;16.00;59.47
75536;BME280;64119;52.070;20.804;2023-06-05T05:52:38;101086.92;;;16.17;58.93
75536;BME280;64119;52.070;20.804;2023-06-05T05:55:06;101090.78;;;16.32;58.16
75536;BME280;64119;52.070;20.804;2023-06-05T05:57:36;101090.10;;;16.47;57.26
75536;BME280;64119;52.070;20.804;2023-06-05T06:00:04;101080.38;;;16.62;56.66
75536;BME280;64119;52.070;20.804;2023-06-05T06:02:40;101082.44;;;16.77;54.69
75536;BME280;64119;52.070;20.804;2023-06-05T06:05:09;101082.73;;;16.87;54.63
75536;BME280;64119;52.070;20.804;2023-06-05T06:07:36;101086.13;;;17.02;53.92
75536;BME280;64119;52.070;20.804;2023-06-05T06:10:05;101088.30;;;17.14;53.62
75536;BME280;64119;52.070;20.804;2023-06-05T06:12:33;101088.59;;;17.30;52.64
75536;BME280;64119;52.070;20.804;2023-06-05T06:15:01;101086.75;;;17.46;54.31
75536;BME280;64119;52.070;20.804;2023-06-05T06:17:29;101090.50;;;17.62;53.11
75536;BME280;64119;52.070;20.804;2023-06-05T06:19:57;101093.31;;;17.74;51.39
75536;BME280;64119;52.070;20.804;2023-06-05T06:22:25;101092.82;;;17.85;51.18
75536;BME280;64119;52.070;20.804;2023-06-05T06:24:55;101094.11;;;17.99;51.05
75536;BME280;64119;52.070;20.804;2023-06-05T06:27:22;101094.68;;;18.10;49.38
75536;BME280;64119;52.070;20.804;2023-06-05T06:29:54;101090.77;;;18.23;50.62
75536;BME280;64119;52.070;20.804;2023-06-05T06:32:23;101089.42;;;18.38;49.75
75536;BME280;64119;52.070;20.804;2023-06-05T06:34:53;101091.00;;;18.54;48.26
75536;BME280;64119;52.070;20.804;2023-06-05T06:37:21;101092.14;;;18.67;47.79
75536;BME280;64119;52.070;20.804;2023-06-05T06:39:50;101089.69;;;18.78;47.51
75536;BME280;64119;52.070;20.804;2023-06-05T06:42:18;101089.59;;;18.91;46.57
75536;BME280;64119;52.070;20.804;2023-06-05T06:53:23;101084.08;;;19.45;44.78
75536;BME280;64119;52.070;20.804;2023-06-05T06:55:51;101085.83;;;19.54;44.92
75536;BME280;64119;52.070;20.804;2023-06-05T06:58:18;101087.45;;;19.65;44.12
75536;BME280;64119;52.070;20.804;2023-06-05T07:00:48;101087.09;;;19.75;44.15
75536;BME280;64119;52.070;20.804;2023-06-05T07:03:19;101089.79;;;19.82;43.34
75536;BME280;64119;52.070;20.804;2023-06-05T07:05:47;101088.40;;;19.85;43.75
75536;BME280;64119;52.070;20.804;2023-06-05T07:08:15;101091.70;;;19.90;42.09
75536;BME280;64119;52.070;20.804;2023-06-05T07:10:43;101095.26;;;19.99;42.90
75536;BME280;64119;52.070;20.804;2023-06-05T07:13:11;101091.59;;;20.12;43.31
75536;BME280;64119;52.070;20.804;2023-06-05T07:15:39;101091.04;;;20.24;42.91
75536;BME280;64119;52.070;20.804;2023-06-05T07:18:07;101093.25;;;20.37;42.99
75536;BME280;64119;52.070;20.804;2023-06-05T07:20:38;101096.23;;;20.47;41.83
75536;BME280;64119;52.070;20.804;2023-06-05T07:23:05;101097.79;;;20.51;41.64
75536;BME280;64119;52.070;20.804;2023-06-05T07:25:33;101098.64;;;20.63;42.21
75536;BME280;64119;52.070;20.804;2023-06-05T07:28:01;101097.60;;;20.72;41.94
75536;BME280;64119;52.070;20.804;2023-06-05T07:30:29;101095.65;;;20.77;40.85
75536;BME280;64119;52.070;20.804;2023-06-05T07:32:57;101098.48;;;20.81;40.61
75536;BME280;64119;52.070;20.804;2023-06-05T07:35:25;101095.15;;;20.86;39.69
75536;BME280;64119;52.070;20.804;2023-06-05T07:37:53;101094.78;;;20.92;39.19
75536;BME280;64119;52.070;20.804;2023-06-05T07:40:21;101092.13;;;20.96;39.14
75536;BME280;64119;52.070;20.804;2023-06-05T07:42:49;101094.24;;;21.04;38.81
75536;BME280;64119;52.070;20.804;2023-06-05T07:45:16;101090.17;;;21.08;38.43
75536;BME280;64119;52.070;20.804;2023-06-05T07:47:44;101087.56;;;21.12;38.72
75536;BME280;64119;52.070;20.804;2023-06-05T07:50:13;101088.69;;;21.17;37.48
75536;BME280;64119;52.070;20.804;2023-06-05T07:52:41;101085.84;;;21.18;37.69
75536;BME280;64119;52.070;20.804;2023-06-05T07:55:09;101089.05;;;21.20;37.52
75536;BME280;64119;52.070;20.804;2023-06-05T07:57:37;101087.70;;;21.22;37.03
75536;BME280;64119;52.070;20.804;2023-06-05T08:00:05;101084.56;;;21.16;37.12
75536;BME280;64119;52.070;20.804;2023-06-05T08:02:39;101088.95;;;21.25;37.53
75536;BME280;64119;52.070;20.804;2023-06-05T08:05:08;101088.90;;;21.34;36.75
75536;BME280;64119;52.070;20.804;2023-06-05T08:07:36;101087.32;;;21.42;36.82
75536;BME280;64119;52.070;20.804;2023-06-05T08:10:05;101087.42;;;21.53;36.69
75536;BME280;64119;52.070;20.804;2023-06-05T08:12:34;101086.89;;;21.62;35.75
75536;BME280;64119;52.070;20.804;2023-06-05T08:15:02;101089.91;;;21.68;35.51
75536;BME280;64119;52.070;20.804;2023-06-05T08:17:32;101092.05;;;21.72;34.59
75536;BME280;64119;52.070;20.804;2023-06-05T08:20:01;101087.04;;;21.77;35.70
75536;BME280;64119;52.070;20.804;2023-06-05T08:22:33;101085.27;;;21.89;35.38
75536;BME280;64119;52.070;20.804;2023-06-05T08:25:04;101080.73;;;21.97;35.01
75536;BME280;64119;52.070;20.804;2023-06-05T08:27:32;101083.25;;;22.04;34.63
75536;BME280;64119;52.070;20.804;2023-06-05T08:30:01;101083.34;;;22.12;34.41
75536;BME280;64119;52.070;20.804;2023-06-05T08:32:29;101086.48;;;22.20;33.36
75536;BME280;64119;52.070;20.804;2023-06-05T08:34:59;101084.10;;;22.29;34.89
75536;BME280;64119;52.070;20.804;2023-06-05T08:37:27;101089.14;;;22.38;33.37
75536;BME280;64119;52.070;20.804;2023-06-05T08:39:56;101086.39;;;22.61;34.23
75536;BME280;64119;52.070;20.804;2023-06-05T08:42:28;101084.94;;;22.80;33.71
75536;BME280;64119;52.070;20.804;2023-06-05T08:44:58;101085.00;;;22.98;32.70
75536;BME280;64119;52.070;20.804;2023-06-05T08:47:30;101082.18;;;23.17;33.84
75536;BME280;64119;52.070;20.804;2023-06-05T08:50:03;101080.94;;;23.44;33.76
75536;BME280;64119;52.070;20.804;2023-06-05T08:52:38;101077.79;;;23.71;34.43
75536;BME280;64119;52.070;20.804;2023-06-05T08:55:07;101076.16;;;23.90;32.64
75536;BME280;64119;52.070;20.804;2023-06-05T08:57:38;101076.79;;;24.05;34.43
75536;BME280;64119;52.070;20.804;2023-06-05T09:00:08;101082.74;;;24.24;33.70
75536;BME280;64119;52.070;20.804;2023-06-05T09:02:40;101078.19;;;24.40;32.86
75536;BME280;64119;52.070;20.804;2023-06-05T09:05:12;101079.83;;;24.60;33.65
75536;BME280;64119;52.070;20.804;2023-06-05T09:07:40;101077.09;;;24.85;32.57
75536;BME280;64119;52.070;20.804;2023-06-05T09:10:30;101069.85;;;25.08;32.47
75536;BME280;64119;52.070;20.804;2023-06-05T09:13:02;101067.59;;;25.31;32.44
75536;BME280;64119;52.070;20.804;2023-06-05T09:15:32;101064.40;;;25.60;32.54
75536;BME280;64119;52.070;20.804;2023-06-05T09:18:12;101060.92;;;25.86;30.96
75536;BME280;64119;52.070;20.804;2023-06-05T09:20:43;101062.29;;;26.00;29.40
75536;BME280;64119;52.070;20.804;2023-06-05T09:25:58;101058.42;;;26.25;29.40
75536;BME280;64119;52.070;20.804;2023-06-05T09:28:27;101055.80;;;26.49;28.75
75536;BME280;64119;52.070;20.804;2023-06-05T09:33:30;101052.47;;;26.90;27.95
75536;BME280;64119;52.070;20.804;2023-06-05T09:36:09;101045.80;;;27.08;27.68
75536;BME280;64119;52.070;20.804;2023-06-05T09:38:40;101050.30;;;27.21;27.62
75536;BME280;64119;52.070;20.804;2023-06-05T09:41:09;101053.04;;;27.46;27.95
75536;BME280;64119;52.070;20.804;2023-06-05T09:43:38;101055.30;;;27.81;27.98
75536;BME280;64119;52.070;20.804;2023-06-05T09:46:08;101058.70;;;28.04;27.32
75536;BME280;64119;52.070;20.804;2023-06-05T09:48:38;101058.77;;;28.14;26.24
75536;BME280;64119;52.070;20.804;2023-06-05T09:51:14;101055.60;;;28.37;26.61
75536;BME280;64119;52.070;20.804;2023-06-05T09:53:47;101052.55;;;28.76;26.65
75536;BME280;64119;52.070;20.804;2023-06-05T09:56:17;101041.55;;;29.37;25.94
75536;BME280;64119;52.070;20.804;2023-06-05T09:58:48;101036.48;;;29.72;23.72
75536;BME280;64119;52.070;20.804;2023-06-05T10:01:18;101037.48;;;29.74;24.77
75536;BME280;64119;52.070;20.804;2023-06-05T10:04:05;101032.20;;;29.96;25.45
75536;BME280;64119;52.070;20.804;2023-06-05T10:06:34;101030.52;;;30.18;25.24
75536;BME280;64119;52.070;20.804;2023-06-05T10:09:06;101028.43;;;30.43;24.61
75536;BME280;64119;52.070;20.804;2023-06-05T10:11:35;101027.40;;;30.93;24.34
75536;BME280;64119;52.070;20.804;2023-06-05T10:14:05;101025.15;;;31.30;23.86
75536;BME280;64119;52.070;20.804;2023-06-05T10:16:34;101020.29;;;31.45;23.80
75536;BME280;64119;52.070;20.804;2023-06-05T10:19:03;101020.33;;;31.58;22.98
75536;BME280;64119;52.070;20.804;2023-06-05T10:21:32;101016.21;;;31.56;22.14
75536;BME280;64119;52.070;20.804;2023-06-05T10:24:07;101013.06;;;31.28;21.49
75536;BME280;64119;52.070;20.804;2023-06-05T10:27:03;101013.45;;;31.42;22.82
75536;BME280;64119;52.070;20.804;2023-06-05T10:38:23;101001.76;;;31.33;22.10
75536;BME280;64119;52.070;20.804;2023-06-05T10:40:55;101000.15;;;31.53;21.90
75536;BME280;64119;52.070;20.804;2023-06-05T10:43:30;101005.69;;;31.52;21.11
75536;BME280;64119;52.070;20.804;2023-06-05T10:46:01;101004.31;;;31.03;20.75
75536;BME280;64119;52.070;20.804;2023-06-05T10:49:15;101003.45;;;30.75;21.03
75536;BME280;64119;52.070;20.804;2023-06-05T10:51:49;100998.41;;;30.46;19.96
75536;BME280;64119;52.070;20.804;2023-06-05T10:59:21;100993.35;;;30.45;20.80
75536;BME280;64119;52.070;20.804;2023-06-05T11:07:18;100983.61;;;30.36;22.41
75536;BME280;64119;52.070;20.804;2023-06-05T11:16:00;100981.13;;;30.58;21.04
75536;BME280;64119;52.070;20.804;2023-06-05T11:18:31;100978.64;;;30.27;22.04
75536;BME280;64119;52.070;20.804;2023-06-05T11:21:00;100976.19;;;30.25;21.92
75536;BME280;64119;52.070;20.804;2023-06-05T11:23:28;100976.02;;;30.32;20.93
75536;BME280;64119;52.070;20.804;2023-06-05T11:28:49;100965.02;;;30.68;22.50
75536;BME280;64119;52.070;20.804;2023-06-05T11:31:28;100968.23;;;30.89;22.34
75536;BME280;64119;52.070;20.804;2023-06-05T11:33:56;100962.18;;;31.05;22.01
75536;BME280;64119;52.070;20.804;2023-06-05T11:36:24;100966.20;;;31.13;22.78
75536;BME280;64119;52.070;20.804;2023-06-05T11:38:53;100964.52;;;31.24;22.02
75536;BME280;64119;52.070;20.804;2023-06-05T11:41:22;100966.45;;;31.16;22.54
75536;BME280;64119;52.070;20.804;2023-06-05T11:43:51;100962.69;;;31.18;22.63
75536;BME280;64119;52.070;20.804;2023-06-05T11:46:19;100962.13;;;31.17;22.92
75536;BME280;64119;52.070;20.804;2023-06-05T11:48:47;100955.97;;;30.91;23.38
75536;BME280;64119;52.070;20.804;2023-06-05T11:51:15;100954.30;;;30.97;22.87
75536;BME280;64119;52.070;20.804;2023-06-05T11:53:45;100952.48;;;30.96;21.39
75536;BME280;64119;52.070;20.804;2023-06-05T11:56:15;100950.40;;;30.68;21.60
75536;BME280;64119;52.070;20.804;2023-06-05T11:58:48;100945.31;;;30.23;21.35
75536;BME280;64119;52.070;20.804;2023-06-05T12:01:18;100944.65;;;30.10;22.68
75536;BME280;64119;52.070;20.804;2023-06-05T12:04:16;100940.45;;;30.03;23.40
75536;BME280;64119;52.070;20.804;2023-06-05T12:06:45;100943.27;;;30.05;23.43
75536;BME280;64119;52.070;20.804;2023-06-05T12:09:19;100938.63;;;29.83;23.04
75536;BME280;64119;52.070;20.804;2023-06-05T12:11:47;100935.07;;;29.62;23.18
75536;BME280;64119;52.070;20.804;2023-06-05T12:14:34;100931.17;;;29.44;23.51
75536;BME280;64119;52.070;20.804;2023-06-05T12:17:09;100933.27;;;29.15;24.78
75536;BME280;64119;52.070;20.804;2023-06-05T12:19:37;100929.49;;;28.90;24.11
75536;BME280;64119;52.070;20.804;2023-06-05T12:22:07;100927.20;;;28.72;24.93
75536;BME280;64119;52.070;20.804;2023-06-05T12:24:37;100928.07;;;28.59;23.49
75536;BME280;64119;52.070;20.804;2023-06-05T12:27:06;100930.13;;;28.26;22.89
75536;BME280;64119;52.070;20.804;2023-06-05T12:29:37;100933.69;;;28.16;23.66
75536;BME280;64119;52.070;20.804;2023-06-05T12:32:23;100930.45;;;27.80;24.17
75536;BME280;64119;52.070;20.804;2023-06-05T12:34:52;100930.08;;;27.57;25.69
75536;BME280;64119;52.070;20.804;2023-06-05T12:37:27;100924.90;;;27.44;24.51
75536;BME280;64119;52.070;20.804;2023-06-05T12:40:01;100917.66;;;27.29;24.12
75536;BME280;64119;52.070;20.804;2023-06-05T12:42:33;100917.48;;;27.01;24.12
75536;BME280;64119;52.070;20.804;2023-06-05T12:45:05;100913.99;;;26.76;25.94
75536;BME280;64119;52.070;20.804;2023-06-05T12:47:34;100915.67;;;26.77;25.14
75536;BME280;64119;52.070;20.804;2023-06-05T12:50:04;100916.14;;;26.83;25.03
75536;BME280;64119;52.070;20.804;2023-06-05T12:52:32;100915.67;;;26.68;24.98
75536;BME280;64119;52.070;20.804;2023-06-05T12:55:00;100909.80;;;26.55;25.75
75536;BME280;64119;52.070;20.804;2023-06-05T12:57:29;100905.77;;;26.56;26.24
75536;BME280;64119;52.070;20.804;2023-06-05T12:59:57;100901.41;;;26.57;27.05
75536;BME280;64119;52.070;20.804;2023-06-05T13:02:25;100903.85;;;26.59;28.02
75536;BME280;64119;52.070;20.804;2023-06-05T13:04:53;100904.19;;;26.66;26.75
75536;BME280;64119;52.070;20.804;2023-06-05T13:07:21;100899.36;;;26.72;26.89
75536;BME280;64119;52.070;20.804;2023-06-05T13:09:49;100897.94;;;26.78;26.86
75536;BME280;64119;52.070;20.804;2023-06-05T13:12:19;100889.66;;;26.77;26.95
75536;BME280;64119;52.070;20.804;2023-06-05T13:14:47;100887.20;;;26.79;26.50
75536;BME280;64119;52.070;20.804;2023-06-05T13:17:15;100888.73;;;26.76;25.68
75536;BME280;64119;52.070;20.804;2023-06-05T13:19:42;100885.91;;;26.65;25.96
75536;BME280;64119;52.070;20.804;2023-06-05T13:22:10;100883.15;;;26.52;25.34
75536;BME280;64119;52.070;20.804;2023-06-05T13:24:38;100881.70;;;26.38;25.78
75536;BME280;64119;52.070;20.804;2023-06-05T13:27:06;100879.14;;;26.27;26.21
75536;BME280;64119;52.070;20.804;2023-06-05T13:29:34;100873.20;;;26.39;26.74
75536;BME280;64119;52.070;20.804;2023-06-05T13:32:03;100869.85;;;26.55;26.01
75536;BME280;64119;52.070;20.804;2023-06-05T13:34:31;100868.08;;;26.62;26.34
75536;BME280;64119;52.070;20.804;2023-06-05T13:37:01;100861.56;;;26.75;26.28
75536;BME280;64119;52.070;20.804;2023-06-05T13:39:41;100859.63;;;26.72;25.64
75536;BME280;64119;52.070;20.804;2023-06-05T13:42:09;100860.14;;;26.79;25.92